sensor_id;sensor_type;location;lat;lon;timestamp;P1;durP1;ratioP1;P2;durP2;ratioP2
40072;SDS011;25774;52.256;9.356;2022-11-04T00:01:45;7.63;;;2.63;;
40072;SDS011;25774;52.256;9.356;2022-11-04T00:04:12;6.43;;;2.88;;
40072;SDS011;25774;52.256;9.356;2022-11-04T00:06:39;6.25;;;2.75;;
40072;SDS011;25774;52.256;9.356;2022-11-04T00:09:05;8.40;;;3.35;;
40072;SDS011;25774;52.256;9.356;2022-11-04T00:11:32;13.63;;;3.50;;
40072;SDS011;25774;52.256;9.356;2022-11-04T00:14:16;10.95;;;3.42;;
40072;SDS011;25774;52.256;9.356;2022-11-04T00:16:42;14.15;;;3.05;;
40072;SDS011;25774;52.256;9.356;2022-11-04T00:19:26;6.38;;;2.83;;
40072;SDS011;25774;52.256;9.356;2022-11-04T00:21:52;10.13;;;3.00;;
40072;SDS011;25774;52.256;9.356;2022-11-04T00:24:37;8.80;;;3.20;;
40072;SDS011;25774;52.256;9.356;2022-11-04T00:27:09;5.90;;;3.05;;
40072;SDS011;25774;52.256;9.356;2022-11-04T00:29:55;7.63;;;2.97;;
40072;SDS011;25774;52.256;9.356;2022-11-04T00:32:21;6.30;;;3.00;;
40072;SDS011;25774;52.256;9.356;2022-11-04T00:35:05;8.00;;;2.83;;
40072;SDS011;25774;52.256;9.356;2022-11-04T00:37:34;10.25;;;3.15;;
40072;SDS011;25774;52.256;9.356;2022-11-04T00:40:01;5.75;;;2.70;;
40072;SDS011;25774;52.256;9.356;2022-11-04T00:42:27;4.88;;;2.90;;
40072;SDS011;25774;52.256;9.356;2022-11-04T00:44:52;6.93;;;3.00;;
40072;SDS011;25774;52.256;9.356;2022-11-04T00:47:18;8.00;;;3.53;;
40072;SDS011;25774;52.256;9.356;2022-11-04T00:49:43;7.30;;;3.70;;
40072;SDS011;25774;52.256;9.356;2022-11-04T00:52:08;8.57;;;3.20;;
40072;SDS011;25774;52.256;9.356;2022-11-04T00:54:35;10.50;;;2.77;;
40072;SDS011;25774;52.256;9.356;2022-11-04T00:57:00;8.10;;;3.20;;
40072;SDS011;25774;52.256;9.356;2022-11-04T00:59:26;5.67;;;3.13;;
40072;SDS011;25774;52.256;9.356;2022-11-04T01:01:52;8.18;;;3.08;;
40072;SDS011;25774;52.256;9.356;2022-11-04T01:04:17;9.60;;;3.33;;
40072;SDS011;25774;52.256;9.356;2022-11-04T01:06:42;5.70;;;3.07;;
40072;SDS011;25774;52.256;9.356;2022-11-04T01:09:09;12.03;;;3.20;;
40072;SDS011;25774;52.256;9.356;2022-11-04T01:11:36;7.20;;;2.65;;
40072;SDS011;25774;52.256;9.356;2022-11-04T01:14:02;5.70;;;3.07;;
40072;SDS011;25774;52.256;9.356;2022-11-04T01:16:30;7.97;;;2.35;;
40072;SDS011;25774;52.256;9.356;2022-11-04T01:18:56;5.45;;;2.88;;
40072;SDS011;25774;52.256;9.356;2022-11-04T01:21:22;5.90;;;2.95;;
40072;SDS011;25774;52.256;9.356;2022-11-04T01:23:47;5.63;;;2.70;;
40072;SDS011;25774;52.256;9.356;2022-11-04T01:26:16;6.67;;;3.37;;
40072;SDS011;25774;52.256;9.356;2022-11-04T01:28:43;11.07;;;3.92;;
40072;SDS011;25774;52.256;9.356;2022-11-04T01:31:28;6.18;;;3.60;;
40072;SDS011;25774;52.256;9.356;2022-11-04T01:33:55;4.20;;;2.13;;
40072;SDS011;25774;52.256;9.356;2022-11-04T01:36:22;6.68;;;3.25;;
40072;SDS011;25774;52.256;9.356;2022-11-04T01:38:48;8.30;;;3.17;;
40072;SDS011;25774;52.256;9.356;2022-11-04T01:41:25;6.35;;;2.53;;
40072;SDS011;25774;52.256;9.356;2022-11-04T01:43:56;8.70;;;2.80;;
40072;SDS011;25774;52.256;9.356;2022-11-04T01:46:34;5.22;;;3.08;;
40072;SDS011;25774;52.256;9.356;2022-11-04T01:52:11;5.85;;;2.90;;
40072;SDS011;25774;52.256;9.356;2022-11-04T01:54:40;5.15;;;2.63;;
40072;SDS011;25774;52.256;9.356;2022-11-04T01:57:10;7.10;;;2.50;;
40072;SDS011;25774;52.256;9.356;2022-11-04T01:59:40;5.88;;;2.45;;
40072;SDS011;25774;52.256;9.356;2022-11-04T02:02:08;6.10;;;2.30;;
40072;SDS011;25774;52.256;9.356;2022-11-04T02:04:33;6.80;;;2.20;;
40072;SDS011;25774;52.256;9.356;2022-11-04T02:06:59;6.30;;;2.33;;
40072;SDS011;25774;52.256;9.356;2022-11-04T02:09:27;4.78;;;2.40;;
40072;SDS011;25774;52.256;9.356;2022-11-04T02:11:55;7.82;;;2.35;;
40072;SDS011;25774;52.256;9.356;2022-11-04T02:14:53;5.88;;;2.50;;
40072;SDS011;25774;52.256;9.356;2022-11-04T02:17:45;4.38;;;2.42;;
40072;SDS011;25774;52.256;9.356;2022-11-04T02:37:08;3.30;;;1.55;;
40072;SDS011;25774;52.256;9.356;2022-11-04T02:39:48;4.90;;;1.40;;
40072;SDS011;25774;52.256;9.356;2022-11-04T02:42:27;2.72;;;1.30;;
40072;SDS011;25774;52.256;9.356;2022-11-04T02:47:35;2.40;;;0.93;;
40072;SDS011;25774;52.256;9.356;2022-11-04T02:52:56;3.22;;;0.73;;
40072;SDS011;25774;52.256;9.356;2022-11-04T02:55:40;5.70;;;0.90;;
40072;SDS011;25774;52.256;9.356;2022-11-04T02:58:13;1.13;;;0.50;;
40072;SDS011;25774;52.256;9.356;2022-11-04T03:00:43;1.38;;;0.70;;
40072;SDS011;25774;52.256;9.356;2022-11-04T03:03:16;3.65;;;0.55;;
40072;SDS011;25774;52.256;9.356;2022-11-04T03:05:47;1.15;;;0.50;;
40072;SDS011;25774;52.256;9.356;2022-11-04T03:08:23;3.83;;;0.90;;
40072;SDS011;25774;52.256;9.356;2022-11-04T03:10:53;3.65;;;0.70;;
40072;SDS011;25774;52.256;9.356;2022-11-04T03:13:27;1.73;;;0.80;;
40072;SDS011;25774;52.256;9.356;2022-11-04T03:16:04;2.30;;;1.50;;
40072;SDS011;25774;52.256;9.356;2022-11-04T03:21:18;2.28;;;1.27;;
40072;SDS011;25774;52.256;9.356;2022-11-04T03:23:46;2.63;;;1.30;;
40072;SDS011;25774;52.256;9.356;2022-11-04T03:26:15;2.57;;;1.37;;
40072;SDS011;25774;52.256;9.356;2022-11-04T03:29:13;5.70;;;1.90;;
40072;SDS011;25774;52.256;9.356;2022-11-04T03:34:26;5.05;;;2.45;;
40072;SDS011;25774;52.256;9.356;2022-11-04T03:36:52;5.20;;;2.55;;
40072;SDS011;25774;52.256;9.356;2022-11-04T03:39:18;3.90;;;2.37;;
40072;SDS011;25774;52.256;9.356;2022-11-04T03:41:47;5.53;;;3.03;;
40072;SDS011;25774;52.256;9.356;2022-11-04T03:44:15;5.90;;;2.80;;
40072;SDS011;25774;52.256;9.356;2022-11-04T03:46:40;5.77;;;2.77;;
40072;SDS011;25774;52.256;9.356;2022-11-04T03:49:06;5.43;;;3.30;;
40072;SDS011;25774;52.256;9.356;2022-11-04T03:51:33;4.88;;;3.15;;
40072;SDS011;25774;52.256;9.356;2022-11-04T03:53:58;6.20;;;3.30;;
40072;SDS011;25774;52.256;9.356;2022-11-04T03:59:35;5.97;;;3.65;;
40072;SDS011;25774;52.256;9.356;2022-11-04T04:02:19;5.93;;;3.58;;
40072;SDS011;25774;52.256;9.356;2022-11-04T04:04:55;6.32;;;3.53;;
40072;SDS011;25774;52.256;9.356;2022-11-04T04:12:58;6.45;;;4.30;;
40072;SDS011;25774;52.256;9.356;2022-11-04T04:15:33;5.00;;;3.40;;
40072;SDS011;25774;52.256;9.356;2022-11-04T04:18:10;5.35;;;3.60;;
40072;SDS011;25774;52.256;9.356;2022-11-04T04:20:39;5.63;;;3.92;;
40072;SDS011;25774;52.256;9.356;2022-11-04T04:23:08;6.88;;;3.70;;
40072;SDS011;25774;52.256;9.356;2022-11-04T04:25:57;5.13;;;3.40;;
40072;SDS011;25774;52.256;9.356;2022-11-04T04:28:46;5.10;;;3.72;;
40072;SDS011;25774;52.256;9.356;2022-11-04T04:33:59;5.10;;;3.35;;
40072;SDS011;25774;52.256;9.356;2022-11-04T04:36:25;4.40;;;3.25;;
40072;SDS011;25774;52.256;9.356;2022-11-04T04:38:52;5.43;;;3.75;;
40072;SDS011;25774;52.256;9.356;2022-11-04T04:41:36;8.00;;;3.03;;
40072;SDS011;25774;52.256;9.356;2022-11-04T04:47:06;4.63;;;3.33;;
40072;SDS011;25774;52.256;9.356;2022-11-04T04:49:34;5.57;;;3.90;;
40072;SDS011;25774;52.256;9.356;2022-11-04T04:51:59;6.90;;;3.50;;
40072;SDS011;25774;52.256;9.356;2022-11-04T04:54:26;5.70;;;4.00;;
40072;SDS011;25774;52.256;9.356;2022-11-04T04:56:52;7.23;;;3.83;;
40072;SDS011;25774;52.256;9.356;2022-11-04T04:59:18;5.47;;;3.67;;
40072;SDS011;25774;52.256;9.356;2022-11-04T05:04:09;7.57;;;4.28;;
40072;SDS011;25774;52.256;9.356;2022-11-04T05:06:34;6.57;;;4.50;;
40072;SDS011;25774;52.256;9.356;2022-11-04T05:09:01;5.90;;;4.10;;
40072;SDS011;25774;52.256;9.356;2022-11-04T05:13:51;6.57;;;4.38;;
40072;SDS011;25774;52.256;9.356;2022-11-04T05:16:17;9.70;;;4.40;;
40072;SDS011;25774;52.256;9.356;2022-11-04T05:18:42;6.00;;;4.17;;
40072;SDS011;25774;52.256;9.356;2022-11-04T05:21:09;7.60;;;4.57;;
40072;SDS011;25774;52.256;9.356;2022-11-04T05:23:36;6.85;;;5.07;;
40072;SDS011;25774;52.256;9.356;2022-11-04T05:26:02;6.68;;;4.93;;
40072;SDS011;25774;52.256;9.356;2022-11-04T05:28:28;8.00;;;4.20;;
40072;SDS011;25774;52.256;9.356;2022-11-04T05:30:53;5.47;;;4.00;;
40072;SDS011;25774;52.256;9.356;2022-11-04T05:33:19;6.33;;;4.83;;
40072;SDS011;25774;52.256;9.356;2022-11-04T05:35:44;6.00;;;4.53;;
40072;SDS011;25774;52.256;9.356;2022-11-04T05:38:11;5.43;;;3.50;;
40072;SDS011;25774;52.256;9.356;2022-11-04T05:40:36;5.57;;;3.70;;
40072;SDS011;25774;52.256;9.356;2022-11-04T05:43:02;6.90;;;3.73;;
40072;SDS011;25774;52.256;9.356;2022-11-04T05:45:27;5.90;;;4.20;;
40072;SDS011;25774;52.256;9.356;2022-11-04T05:47:56;7.90;;;4.00;;
40072;SDS011;25774;52.256;9.356;2022-11-04T05:50:23;6.78;;;4.28;;
40072;SDS011;25774;52.256;9.356;2022-11-04T05:52:48;4.73;;;3.53;;
40072;SDS011;25774;52.256;9.356;2022-11-04T05:55:14;5.87;;;3.87;;
40072;SDS011;25774;52.256;9.356;2022-11-04T05:57:39;5.50;;;3.80;;
40072;SDS011;25774;52.256;9.356;2022-11-04T06:00:04;8.60;;;3.43;;
40072;SDS011;25774;52.256;9.356;2022-11-04T06:02:31;5.35;;;3.72;;
40072;SDS011;25774;52.256;9.356;2022-11-04T06:04:56;7.70;;;4.77;;
40072;SDS011;25774;52.256;9.356;2022-11-04T06:07:21;10.47;;;5.07;;
40072;SDS011;25774;52.256;9.356;2022-11-04T06:09:47;7.30;;;4.70;;
40072;SDS011;25774;52.256;9.356;2022-11-04T06:12:13;15.70;;;3.90;;
40072;SDS011;25774;52.256;9.356;2022-11-04T06:14:42;5.68;;;3.85;;
40072;SDS011;25774;52.256;9.356;2022-11-04T06:17:13;7.93;;;4.10;;
40072;SDS011;25774;52.256;9.356;2022-11-04T06:19:40;5.15;;;4.00;;
40072;SDS011;25774;52.256;9.356;2022-11-04T06:22:05;6.83;;;3.97;;
40072;SDS011;25774;52.256;9.356;2022-11-04T06:24:30;6.60;;;3.67;;
40072;SDS011;25774;52.256;9.356;2022-11-04T06:26:56;9.20;;;4.63;;
40072;SDS011;25774;52.256;9.356;2022-11-04T06:29:22;7.27;;;4.73;;
40072;SDS011;25774;52.256;9.356;2022-11-04T06:31:47;7.97;;;3.70;;
40072;SDS011;25774;52.256;9.356;2022-11-04T06:34:12;7.30;;;4.33;;
40072;SDS011;25774;52.256;9.356;2022-11-04T06:36:38;6.93;;;4.27;;
40072;SDS011;25774;52.256;9.356;2022-11-04T06:39:03;9.00;;;4.10;;
40072;SDS011;25774;52.256;9.356;2022-11-04T06:41:29;8.10;;;3.88;;
40072;SDS011;25774;52.256;9.356;2022-11-04T06:43:55;8.00;;;4.43;;
40072;SDS011;25774;52.256;9.356;2022-11-04T06:46:24;10.77;;;4.63;;
40072;SDS011;25774;52.256;9.356;2022-11-04T06:48:51;8.60;;;4.70;;
40072;SDS011;25774;52.256;9.356;2022-11-04T06:51:17;7.30;;;4.05;;
40072;SDS011;25774;52.256;9.356;2022-11-04T06:53:43;5.63;;;3.70;;
40072;SDS011;25774;52.256;9.356;2022-11-04T06:56:08;8.43;;;3.80;;
40072;SDS011;25774;52.256;9.356;2022-11-04T06:58:34;5.13;;;3.33;;
40072;SDS011;25774;52.256;9.356;2022-11-04T07:00:59;11.07;;;4.77;;
40072;SDS011;25774;52.256;9.356;2022-11-04T07:03:24;8.90;;;3.73;;
40072;SDS011;25774;52.256;9.356;2022-11-04T07:05:50;7.70;;;3.37;;
40072;SDS011;25774;52.256;9.356;2022-11-04T07:08:15;8.00;;;4.10;;
40072;SDS011;25774;52.256;9.356;2022-11-04T07:10:40;9.20;;;3.97;;
40072;SDS011;25774;52.256;9.356;2022-11-04T07:13:06;7.13;;;4.83;;
40072;SDS011;25774;52.256;9.356;2022-11-04T07:15:31;12.00;;;4.03;;
40072;SDS011;25774;52.256;9.356;2022-11-04T07:17:58;8.03;;;3.60;;
40072;SDS011;25774;52.256;9.356;2022-11-04T07:20:25;8.60;;;3.92;;
40072;SDS011;25774;52.256;9.356;2022-11-04T07:25:17;7.90;;;3.70;;
40072;SDS011;25774;52.256;9.356;2022-11-04T07:27:43;9.10;;;3.87;;
40072;SDS011;25774;52.256;9.356;2022-11-04T07:30:08;7.37;;;3.60;;
40072;SDS011;25774;52.256;9.356;2022-11-04T07:32:34;8.98;;;3.67;;
40072;SDS011;25774;52.256;9.356;2022-11-04T07:34:59;5.33;;;3.67;;
40072;SDS011;25774;52.256;9.356;2022-11-04T07:37:24;7.80;;;3.30;;
40072;SDS011;25774;52.256;9.356;2022-11-04T07:39:50;5.53;;;3.33;;
40072;SDS011;25774;52.256;9.356;2022-11-04T07:42:15;11.77;;;4.93;;
40072;SDS011;25774;52.256;9.356;2022-11-04T07:44:40;6.30;;;3.47;;
40072;SDS011;25774;52.256;9.356;2022-11-04T07:47:06;7.77;;;3.43;;
40072;SDS011;25774;52.256;9.356;2022-11-04T07:49:31;7.50;;;3.57;;
40072;SDS011;25774;52.256;9.356;2022-11-04T07:51:57;5.95;;;3.35;;
40072;SDS011;25774;52.256;9.356;2022-11-04T07:54:22;13.87;;;3.30;;
40072;SDS011;25774;52.256;9.356;2022-11-04T07:56:48;5.37;;;3.00;;
40072;SDS011;25774;52.256;9.356;2022-11-04T07:59:13;6.23;;;3.40;;
40072;SDS011;25774;52.256;9.356;2022-11-04T08:01:38;7.43;;;3.43;;
40072;SDS011;25774;52.256;9.356;2022-11-04T08:04:04;6.30;;;3.43;;
40072;SDS011;25774;52.256;9.356;2022-11-04T08:06:31;8.15;;;3.20;;
40072;SDS011;25774;52.256;9.356;2022-11-04T08:08:57;6.60;;;3.45;;
40072;SDS011;25774;52.256;9.356;2022-11-04T08:11:23;9.40;;;3.20;;
40072;SDS011;25774;52.256;9.356;2022-11-04T08:13:52;7.88;;;3.35;;
40072;SDS011;25774;52.256;9.356;2022-11-04T08:16:19;8.93;;;4.00;;
40072;SDS011;25774;52.256;9.356;2022-11-04T08:18:47;7.63;;;3.97;;
40072;SDS011;25774;52.256;9.356;2022-11-04T08:21:15;7.18;;;3.65;;
40072;SDS011;25774;52.256;9.356;2022-11-04T08:23:41;6.45;;;4.32;;
40072;SDS011;25774;52.256;9.356;2022-11-04T08:26:10;9.37;;;3.63;;
40072;SDS011;25774;52.256;9.356;2022-11-04T08:28:39;8.98;;;3.92;;
40072;SDS011;25774;52.256;9.356;2022-11-04T08:31:07;13.95;;;4.57;;
40072;SDS011;25774;52.256;9.356;2022-11-04T08:33:34;8.40;;;3.95;;
40072;SDS011;25774;52.256;9.356;2022-11-04T08:36:03;6.30;;;3.90;;
40072;SDS011;25774;52.256;9.356;2022-11-04T08:38:31;7.57;;;3.88;;
40072;SDS011;25774;52.256;9.356;2022-11-04T08:40:58;6.55;;;3.67;;
40072;SDS011;25774;52.256;9.356;2022-11-04T08:43:25;9.00;;;3.63;;
40072;SDS011;25774;52.256;9.356;2022-11-04T08:45:51;9.50;;;4.43;;
40072;SDS011;25774;52.256;9.356;2022-11-04T08:48:17;7.82;;;3.20;;
40072;SDS011;25774;52.256;9.356;2022-11-04T08:50:42;9.63;;;3.60;;
40072;SDS011;25774;52.256;9.356;2022-11-04T08:53:12;8.35;;;3.72;;
40072;SDS011;25774;52.256;9.356;2022-11-04T08:55:37;12.43;;;4.17;;
40072;SDS011;25774;52.256;9.356;2022-11-04T08:58:02;6.27;;;3.50;;
40072;SDS011;25774;52.256;9.356;2022-11-04T09:00:28;12.93;;;3.35;;
40072;SDS011;25774;52.256;9.356;2022-11-04T09:02:53;11.30;;;3.07;;
40072;SDS011;25774;52.256;9.356;2022-11-04T09:05:19;8.80;;;3.38;;
40072;SDS011;25774;52.256;9.356;2022-11-04T09:07:46;7.70;;;4.32;;
40072;SDS011;25774;52.256;9.356;2022-11-04T09:12:37;8.20;;;3.40;;
40072;SDS011;25774;52.256;9.356;2022-11-04T09:15:03;8.50;;;3.30;;
40072;SDS011;25774;52.256;9.356;2022-11-04T09:17:32;11.23;;;4.28;;
40072;SDS011;25774;52.256;9.356;2022-11-04T09:19:57;12.53;;;3.73;;
40072;SDS011;25774;52.256;9.356;2022-11-04T09:22:23;9.90;;;4.00;;
40072;SDS011;25774;52.256;9.356;2022-11-04T09:24:48;6.43;;;3.90;;
40072;SDS011;25774;52.256;9.356;2022-11-04T09:27:13;9.33;;;4.40;;
40072;SDS011;25774;52.256;9.356;2022-11-04T09:29:39;9.68;;;3.53;;
40072;SDS011;25774;52.256;9.356;2022-11-04T09:32:05;10.03;;;3.67;;
40072;SDS011;25774;52.256;9.356;2022-11-04T09:34:31;11.55;;;3.47;;
40072;SDS011;25774;52.256;9.356;2022-11-04T09:36:57;9.83;;;4.03;;
40072;SDS011;25774;52.256;9.356;2022-11-04T09:39:23;12.32;;;3.85;;
40072;SDS011;25774;52.256;9.356;2022-11-04T09:44:29;10.52;;;3.17;;
40072;SDS011;25774;52.256;9.356;2022-11-04T09:47:02;5.63;;;2.80;;
40072;SDS011;25774;52.256;9.356;2022-11-04T09:49:34;5.63;;;2.95;;
40072;SDS011;25774;52.256;9.356;2022-11-04T09:52:05;7.97;;;3.13;;
40072;SDS011;25774;52.256;9.356;2022-11-04T09:57:12;8.73;;;2.53;;
40072;SDS011;25774;52.256;9.356;2022-11-04T09:59:42;6.20;;;2.85;;
40072;SDS011;25774;52.256;9.356;2022-11-04T10:02:33;8.88;;;3.72;;
40072;SDS011;25774;52.256;9.356;2022-11-04T10:14:31;6.30;;;2.85;;
40072;SDS011;25774;52.256;9.356;2022-11-04T10:22:09;11.40;;;2.72;;
40072;SDS011;25774;52.256;9.356;2022-11-04T10:24:41;5.97;;;2.50;;
40072;SDS011;25774;52.256;9.356;2022-11-04T10:27:16;8.93;;;2.80;;
40072;SDS011;25774;52.256;9.356;2022-11-04T10:29:59;7.65;;;2.15;;
40072;SDS011;25774;52.256;9.356;2022-11-04T10:33:10;10.05;;;2.40;;
40072;SDS011;25774;52.256;9.356;2022-11-04T10:35:54;9.10;;;2.45;;
40072;SDS011;25774;52.256;9.356;2022-11-04T10:40:52;10.32;;;2.38;;
40072;SDS011;25774;52.256;9.356;2022-11-04T10:43:35;7.32;;;2.42;;
40072;SDS011;25774;52.256;9.356;2022-11-04T10:46:07;10.25;;;2.22;;
40072;SDS011;25774;52.256;9.356;2022-11-04T10:48:39;7.93;;;2.65;;
40072;SDS011;25774;52.256;9.356;2022-11-04T10:51:13;7.65;;;1.80;;
40072;SDS011;25774;52.256;9.356;2022-11-04T10:53:44;5.78;;;1.98;;
40072;SDS011;25774;52.256;9.356;2022-11-04T10:58:53;4.57;;;1.63;;
40072;SDS011;25774;52.256;9.356;2022-11-04T11:01:30;4.97;;;1.60;;
40072;SDS011;25774;52.256;9.356;2022-11-04T11:03:57;6.43;;;2.38;;
40072;SDS011;25774;52.256;9.356;2022-11-04T11:06:24;5.22;;;1.58;;
40072;SDS011;25774;52.256;9.356;2022-11-04T11:08:59;5.13;;;1.50;;
40072;SDS011;25774;52.256;9.356;2022-11-04T11:11:46;6.70;;;1.98;;
40072;SDS011;25774;52.256;9.356;2022-11-04T11:14:18;6.90;;;2.03;;
40072;SDS011;25774;52.256;9.356;2022-11-04T11:16:55;4.63;;;1.67;;
40072;SDS011;25774;52.256;9.356;2022-11-04T11:19:23;4.55;;;1.48;;
40072;SDS011;25774;52.256;9.356;2022-11-04T11:21:51;3.53;;;1.38;;
40072;SDS011;25774;52.256;9.356;2022-11-04T11:24:21;4.57;;;1.27;;
40072;SDS011;25774;52.256;9.356;2022-11-04T11:26:50;4.78;;;1.80;;
40072;SDS011;25774;52.256;9.356;2022-11-04T11:29:29;4.68;;;1.20;;
40072;SDS011;25774;52.256;9.356;2022-11-04T11:32:04;3.15;;;1.13;;
40072;SDS011;25774;52.256;9.356;2022-11-04T11:34:32;6.47;;;1.38;;
40072;SDS011;25774;52.256;9.356;2022-11-04T11:37:02;8.15;;;1.55;;
40072;SDS011;25774;52.256;9.356;2022-11-04T11:39:32;6.38;;;1.52;;
40072;SDS011;25774;52.256;9.356;2022-11-04T11:42:06;5.88;;;1.70;;
40072;SDS011;25774;52.256;9.356;2022-11-04T11:47:19;4.80;;;1.60;;
40072;SDS011;25774;52.256;9.356;2022-11-04T11:49:46;6.13;;;1.88;;
40072;SDS011;25774;52.256;9.356;2022-11-04T11:52:38;5.57;;;1.77;;
40072;SDS011;25774;52.256;9.356;2022-11-04T12:01:03;3.85;;;1.35;;
40072;SDS011;25774;52.256;9.356;2022-11-04T12:03:49;5.15;;;1.10;;
40072;SDS011;25774;52.256;9.356;2022-11-04T12:14:30;3.10;;;1.13;;
40072;SDS011;25774;52.256;9.356;2022-11-04T12:17:22;5.07;;;1.38;;
40072;SDS011;25774;52.256;9.356;2022-11-04T12:28:21;5.85;;;1.15;;
40072;SDS011;25774;52.256;9.356;2022-11-04T12:31:06;5.53;;;1.23;;
40072;SDS011;25774;52.256;9.356;2022-11-04T12:33:50;4.22;;;1.00;;
40072;SDS011;25774;52.256;9.356;2022-11-04T12:50:31;6.10;;;2.00;;
40072;SDS011;25774;52.256;9.356;2022-11-04T13:01:24;3.17;;;1.08;;
40072;SDS011;25774;52.256;9.356;2022-11-04T13:06:30;4.15;;;0.95;;
40072;SDS011;25774;52.256;9.356;2022-11-04T13:09:02;4.70;;;1.00;;
40072;SDS011;25774;52.256;9.356;2022-11-04T13:16:53;4.75;;;1.13;;
40072;SDS011;25774;52.256;9.356;2022-11-04T13:21:54;3.53;;;0.90;;
40072;SDS011;25774;52.256;9.356;2022-11-04T13:26:49;3.20;;;0.90;;
40072;SDS011;25774;52.256;9.356;2022-11-04T13:29:16;4.05;;;1.10;;
40072;SDS011;25774;52.256;9.356;2022-11-04T13:34:14;6.50;;;1.60;;
40072;SDS011;25774;52.256;9.356;2022-11-04T13:39:56;7.45;;;1.38;;
40072;SDS011;25774;52.256;9.356;2022-11-04T13:45:14;3.45;;;1.50;;
40072;SDS011;25774;52.256;9.356;2022-11-04T13:52:59;4.15;;;1.40;;
40072;SDS011;25774;52.256;9.356;2022-11-04T13:55:27;4.60;;;1.35;;
40072;SDS011;25774;52.256;9.356;2022-11-04T13:57:53;5.97;;;1.20;;
40072;SDS011;25774;52.256;9.356;2022-11-04T14:00:22;4.88;;;1.30;;
40072;SDS011;25774;52.256;9.356;2022-11-04T14:06:03;4.28;;;1.27;;
40072;SDS011;25774;52.256;9.356;2022-11-04T14:08:31;3.05;;;1.13;;
40072;SDS011;25774;52.256;9.356;2022-11-04T14:10:58;2.92;;;1.13;;
40072;SDS011;25774;52.256;9.356;2022-11-04T14:16:11;4.15;;;1.10;;
40072;SDS011;25774;52.256;9.356;2022-11-04T14:18:57;6.22;;;1.10;;
40072;SDS011;25774;52.256;9.356;2022-11-04T14:22:03;3.30;;;1.02;;
40072;SDS011;25774;52.256;9.356;2022-11-04T14:24:31;3.20;;;1.10;;
40072;SDS011;25774;52.256;9.356;2022-11-04T14:26:57;7.67;;;1.73;;
40072;SDS011;25774;52.256;9.356;2022-11-04T14:29:23;3.90;;;1.30;;
40072;SDS011;25774;52.256;9.356;2022-11-04T14:31:51;4.80;;;1.42;;
40072;SDS011;25774;52.256;9.356;2022-11-04T14:34:26;3.85;;;1.73;;
40072;SDS011;25774;52.256;9.356;2022-11-04T14:36:57;8.02;;;2.63;;
40072;SDS011;25774;52.256;9.356;2022-11-04T14:39:37;7.07;;;1.58;;
40072;SDS011;25774;52.256;9.356;2022-11-04T14:42:04;7.25;;;1.58;;
40072;SDS011;25774;52.256;9.356;2022-11-04T14:47:18;3.90;;;1.23;;
40072;SDS011;25774;52.256;9.356;2022-11-04T14:57:50;3.42;;;1.27;;
40072;SDS011;25774;52.256;9.356;2022-11-04T15:02:57;4.03;;;1.35;;
40072;SDS011;25774;52.256;9.356;2022-11-04T15:05:51;3.13;;;1.23;;
40072;SDS011;25774;52.256;9.356;2022-11-04T15:08:24;8.05;;;1.50;;
40072;SDS011;25774;52.256;9.356;2022-11-04T15:13:35;3.35;;;1.25;;
40072;SDS011;25774;52.256;9.356;2022-11-04T15:16:04;6.55;;;2.15;;
40072;SDS011;25774;52.256;9.356;2022-11-04T15:18:35;3.30;;;1.23;;
40072;SDS011;25774;52.256;9.356;2022-11-04T15:21:03;5.72;;;1.50;;
40072;SDS011;25774;52.256;9.356;2022-11-04T15:23:32;8.07;;;1.77;;
40072;SDS011;25774;52.256;9.356;2022-11-04T15:26:00;5.00;;;1.30;;
40072;SDS011;25774;52.256;9.356;2022-11-04T15:28:39;5.32;;;1.73;;
40072;SDS011;25774;52.256;9.356;2022-11-04T15:36:35;3.75;;;1.50;;
40072;SDS011;25774;52.256;9.356;2022-11-04T15:39:06;4.55;;;1.38;;
40072;SDS011;25774;52.256;9.356;2022-11-04T15:41:36;6.90;;;1.67;;
40072;SDS011;25774;52.256;9.356;2022-11-04T15:44:26;4.75;;;1.50;;
40072;SDS011;25774;52.256;9.356;2022-11-04T15:46:55;6.05;;;1.63;;
40072;SDS011;25774;52.256;9.356;2022-11-04T15:51:53;2.95;;;1.67;;
40072;SDS011;25774;52.256;9.356;2022-11-04T15:54:24;4.43;;;1.67;;
40072;SDS011;25774;52.256;9.356;2022-11-04T15:56:55;2.20;;;1.25;;
40072;SDS011;25774;52.256;9.356;2022-11-04T15:59:24;3.25;;;1.75;;
40072;SDS011;25774;52.256;9.356;2022-11-04T16:01:53;5.43;;;1.77;;
40072;SDS011;25774;52.256;9.356;2022-11-04T16:04:20;12.75;;;2.33;;
40072;SDS011;25774;52.256;9.356;2022-11-04T16:07:01;5.18;;;1.80;;
40072;SDS011;25774;52.256;9.356;2022-11-04T16:09:29;8.23;;;1.70;;
40072;SDS011;25774;52.256;9.356;2022-11-04T16:12:05;6.33;;;1.50;;
40072;SDS011;25774;52.256;9.356;2022-11-04T16:14:54;9.73;;;1.48;;
40072;SDS011;25774;52.256;9.356;2022-11-04T16:17:21;4.93;;;2.22;;
40072;SDS011;25774;52.256;9.356;2022-11-04T16:19:52;5.05;;;2.00;;
40072;SDS011;25774;52.256;9.356;2022-11-04T16:22:23;5.13;;;2.00;;
40072;SDS011;25774;52.256;9.356;2022-11-04T16:24:52;6.53;;;1.90;;
40072;SDS011;25774;52.256;9.356;2022-11-04T16:27:20;26.75;;;3.28;;
40072;SDS011;25774;52.256;9.356;2022-11-04T16:29:54;9.45;;;2.05;;
40072;SDS011;25774;52.256;9.356;2022-11-04T16:32:30;9.68;;;1.95;;
40072;SDS011;25774;52.256;9.356;2022-11-04T16:35:07;4.80;;;1.98;;
40072;SDS011;25774;52.256;9.356;2022-11-04T16:37:38;5.50;;;1.73;;
40072;SDS011;25774;52.256;9.356;2022-11-04T16:40:04;6.37;;;1.80;;
40072;SDS011;25774;52.256;9.356;2022-11-04T16:42:31;3.85;;;1.83;;
40072;SDS011;25774;52.256;9.356;2022-11-04T16:44:57;4.47;;;1.80;;
40072;SDS011;25774;52.256;9.356;2022-11-04T16:47:26;5.47;;;1.60;;
40072;SDS011;25774;52.256;9.356;2022-11-04T16:49:56;8.15;;;1.88;;
40072;SDS011;25774;52.256;9.356;2022-11-04T16:52:25;6.63;;;2.15;;
40072;SDS011;25774;52.256;9.356;2022-11-04T16:54:51;4.32;;;2.00;;
40072;SDS011;25774;52.256;9.356;2022-11-04T16:57:20;9.43;;;2.15;;
40072;SDS011;25774;52.256;9.356;2022-11-04T16:59:46;8.10;;;1.80;;
40072;SDS011;25774;52.256;9.356;2022-11-04T17:02:45;10.90;;;1.73;;
40072;SDS011;25774;52.256;9.356;2022-11-04T17:05:05;6.30;;;2.00;;
40072;SDS011;25774;52.256;9.356;2022-11-04T17:07:32;7.10;;;1.77;;
40072;SDS011;25774;52.256;9.356;2022-11-04T17:09:58;12.45;;;2.00;;
40072;SDS011;25774;52.256;9.356;2022-11-04T17:12:23;5.27;;;2.13;;
40072;SDS011;25774;52.256;9.356;2022-11-04T17:14:49;6.68;;;2.38;;
40072;SDS011;25774;52.256;9.356;2022-11-04T17:17:14;8.40;;;2.43;;
40072;SDS011;25774;52.256;9.356;2022-11-04T17:19:39;6.57;;;2.57;;
40072;SDS011;25774;52.256;9.356;2022-11-04T17:22:05;6.17;;;2.40;;
40072;SDS011;25774;52.256;9.356;2022-11-04T17:24:33;6.25;;;3.20;;
40072;SDS011;25774;52.256;9.356;2022-11-04T17:26:59;11.07;;;2.92;;
40072;SDS011;25774;52.256;9.356;2022-11-04T17:29:25;12.00;;;2.83;;
40072;SDS011;25774;52.256;9.356;2022-11-04T17:31:50;6.07;;;2.70;;
40072;SDS011;25774;52.256;9.356;2022-11-04T17:34:19;5.85;;;2.75;;
40072;SDS011;25774;52.256;9.356;2022-11-04T17:36:47;9.00;;;3.35;;
40072;SDS011;25774;52.256;9.356;2022-11-04T17:39:13;8.23;;;3.00;;
40072;SDS011;25774;52.256;9.356;2022-11-04T17:41:39;5.10;;;2.95;;
40072;SDS011;25774;52.256;9.356;2022-11-04T17:44:23;8.00;;;3.20;;
40072;SDS011;25774;52.256;9.356;2022-11-04T17:46:51;16.17;;;5.07;;
40072;SDS011;25774;52.256;9.356;2022-11-04T17:49:18;15.38;;;5.22;;
40072;SDS011;25774;52.256;9.356;2022-11-04T17:51:46;18.13;;;6.13;;
40072;SDS011;25774;52.256;9.356;2022-11-04T17:54:14;35.75;;;13.00;;
40072;SDS011;25774;52.256;9.356;2022-11-04T17:56:40;32.33;;;10.82;;
40072;SDS011;25774;52.256;9.356;2022-11-04T17:59:06;26.20;;;9.13;;
40072;SDS011;25774;52.256;9.356;2022-11-04T18:01:33;20.90;;;7.55;;
40072;SDS011;25774;52.256;9.356;2022-11-04T18:04:00;14.27;;;6.03;;
40072;SDS011;25774;52.256;9.356;2022-11-04T18:06:28;12.27;;;4.82;;